< Typhoon 199623 1996 Season Typhoon 199625 >
Typhoon 199624 (DALE)
General InformationTrack Information on Google MapsDetailed Wind InformationList of All Images || Disaster Info.ResourceGoogle EarthGE AnimationAtom FeedGeoJSON
Detalied Best Track (Time Zone = UTC)
Year Month Day Hour Lat. Long. Pressure (hPa) Wind (kt) Class Image Chart
1996 11 3 18 9.8 152.1 1000 0 2 Image Chart
1996 11 4 00 9.9 152.0 1000 0 2 Image Chart
1996 11 4 06 10.0 152.0 998 0 2 Image Chart
1996 11 4 12 10.1 152.1 998 0 2 Image Chart
1996 11 4 18 10.2 152.2 998 0 2 Image Chart
1996 11 5 00 10.3 152.2 998 0 2 Image Chart
1996 11 5 06 10.4 152.1 996 0 2 Image Chart
1996 11 5 12 10.5 152.0 996 0 2 Image Chart
1996 11 5 18 10.7 151.8 992 35 3 Image Chart
1996 11 6 00 11.0 151.5 992 35 3 Image Chart
1996 11 6 06 11.5 151.0 990 45 3 Image Chart
1996 11 6 12 12.0 149.8 985 50 4 Image Chart
1996 11 6 18 11.9 148.6 980 55 4 Image Chart
1996 11 7 00 11.3 148.1 980 55 4 Image Chart
1996 11 7 06 11.1 147.8 975 60 4 Image Chart
1996 11 7 12 11.8 146.4 970 65 5 Image Chart
1996 11 7 18 11.8 144.6 970 65 5 Image Chart
1996 11 8 00 11.8 143.4 970 65 5 Image Chart
1996 11 8 06 11.6 142.2 970 65 5 Image Chart
1996 11 8 12 11.9 141.0 970 65 5 Image Chart
1996 11 8 18 12.4 140.0 965 70 5 Image Chart
1996 11 9 00 12.7 139.0 955 75 5 Image Chart
1996 11 9 06 13.7 137.7 945 85 5 Image Chart
1996 11 9 12 14.7 136.5 935 90 5 Image Chart
1996 11 9 18 15.7 135.2 930 90 5 Image Chart
1996 11 10 00 16.8 133.9 930 90 5 Image Chart
1996 11 10 06 17.4 132.9 930 90 5 Image Chart
1996 11 10 12 18.4 132.1 930 90 5 Image Chart
1996 11 10 18 19.5 131.6 930 90 5 Image Chart
1996 11 11 00 20.6 131.3 930 90 5 Image Chart
1996 11 11 06 21.8 131.2 930 90 5 Image Chart
1996 11 11 12 22.8 131.4 940 85 5 Image Chart
1996 11 11 15 23.4 131.5 945 85 5 Image Chart
1996 11 11 18 24.0 131.7 950 80 5 Image Chart
1996 11 11 21 24.6 132.0 955 75 5 Image Chart
1996 11 12 00 25.1 132.5 960 75 5 Image Chart
1996 11 12 03 25.7 133.1 960 75 5 Image Chart
1996 11 12 06 26.3 133.9 965 70 5 Image Chart
1996 11 12 12 27.5 135.8 970 65 5 Image Chart
1996 11 12 18 29.2 138.9 975 60 4 Image Chart
1996 11 12 21 30.2 140.7 975 60 4 Image Chart
1996 11 13 00 31.3 143.2 980 55 4 Image Chart
1996 11 13 06 34.3 149.8 985 50 4 Image Chart
1996 11 13 12 37.6 158.0 980 0 6 Image Chart
1996 11 13 18 42.0 165.0 980 0 6 Image Chart
1996 11 14 00 46.0 171.3 976 0 6 Image Chart
1996 11 14 06 50.6 176.4 972 0 6 Image Chart
1996 11 14 12 55.0 178.5 968 0 6 Image Chart
1996 11 14 18 58.1 178.6 964 0 6 Image Chart
1996 11 15 00 61.0 176.3 956 0 6 Image Chart
Japan Meteorological Agency Best Track Data | Correction Date : 1997-01-07
< Typhoon 199623 1996 Season Typhoon 199625 >

Help